createdAt,value
2022-08-29T00:00:07.635Z,85.72
2022-08-29T00:00:43.854Z,87.68
2022-08-29T00:01:21.501Z,90.70
2022-08-29T00:01:56.044Z,91.63
2022-08-29T00:02:31.278Z,90.53
2022-08-29T00:03:08.495Z,87.93
2022-08-29T00:03:44.827Z,96.60
2022-08-29T00:04:18.558Z,88.03
2022-08-29T00:04:54.735Z,95.97
2022-08-29T00:05:30.418Z,90.40
2022-08-29T00:06:04.471Z,93.05
2022-08-29T00:06:38.695Z,88.70
2022-08-29T00:07:14.481Z,88.25
2022-08-29T00:07:48.750Z,92.68
2022-08-29T00:08:23.666Z,98.88
2022-08-29T00:08:58.258Z,96.85
2022-08-29T00:09:32.752Z,88.07
2022-08-29T00:10:07.354Z,89.50
2022-08-29T00:10:42.300Z,87.13
2022-08-29T00:11:16.950Z,93.63
2022-08-29T00:11:50.550Z,91.05
2022-08-29T00:12:25.931Z,88.75
2022-08-29T00:12:59.933Z,90.00
2022-08-29T00:13:33.895Z,89.13
2022-08-29T00:14:08.763Z,101.10
2022-08-29T00:14:57.320Z,86.63
2022-08-29T00:15:31.102Z,91.10
2022-08-29T00:16:11.001Z,86.53
2022-08-29T00:16:44.487Z,82.72
2022-08-29T00:17:18.061Z,94.20
2022-08-29T00:17:53.373Z,87.40
2022-08-29T00:18:27.353Z,90.78
2022-08-29T00:19:02.330Z,88.32
2022-08-29T00:19:37.644Z,84.88
2022-08-29T00:20:14.270Z,93.28
2022-08-29T00:20:48.007Z,92.78
2022-08-29T00:21:23.109Z,90.13
2022-08-29T00:21:57.447Z,86.50
2022-08-29T00:22:31.350Z,88.40
2022-08-29T00:23:08.029Z,86.50
2022-08-29T00:23:42.245Z,88.10
2022-08-29T00:24:16.842Z,87.45
2022-08-29T00:24:51.834Z,83.47
2022-08-29T00:25:27.671Z,96.68
2022-08-29T00:26:01.046Z,91.45
2022-08-29T00:26:35.644Z,90.15
2022-08-29T00:27:10.765Z,92.68
2022-08-29T00:27:49.746Z,93.88
2022-08-29T00:28:25.808Z,86.78
2022-08-29T00:28:59.980Z,92.95
2022-08-29T00:29:34.405Z,89.63
2022-08-29T00:30:10.594Z,90.72
2022-08-29T00:30:43.658Z,89.05
2022-08-29T00:31:18.448Z,90.00
2022-08-29T00:31:53.551Z,86.75
2022-08-29T00:32:29.285Z,85.80
2022-08-29T00:33:03.093Z,87.75
2022-08-29T00:33:39.242Z,94.53
2022-08-29T00:34:13.364Z,91.78
2022-08-29T00:34:47.581Z,81.88
2022-08-29T00:35:26.889Z,84.90
2022-08-29T00:36:00.208Z,81.57
2022-08-29T00:36:36.267Z,76.90
2022-08-29T00:37:11.447Z,96.75
2022-08-29T00:37:45.637Z,87.95
2022-08-29T00:38:20.883Z,94.10
2022-08-29T00:39:02.901Z,87.47
2022-08-29T00:39:38.136Z,93.82
2022-08-29T00:40:13.863Z,97.20
2022-08-29T00:40:52.086Z,91.13
2022-08-29T00:41:27.608Z,86.63
2022-08-29T00:42:01.512Z,95.65
2022-08-29T00:42:36.429Z,85.20
2022-08-29T00:43:11.324Z,104.22
2022-08-29T00:43:45.930Z,87.70
2022-08-29T00:44:20.410Z,85.80
2022-08-29T00:44:54.456Z,86.85
2022-08-29T00:45:28.928Z,88.90
2022-08-29T00:46:08.653Z,106.70
2022-08-29T00:46:47.353Z,90.53
2022-08-29T00:47:25.191Z,87.50
2022-08-29T00:48:01.866Z,85.13
2022-08-29T00:48:35.497Z,86.97
2022-08-29T00:49:11.642Z,104.75
2022-08-29T00:49:48.399Z,91.55
2022-08-29T00:50:26.939Z,99.25
2022-08-29T00:51:02.720Z,85.35
2022-08-29T00:51:38.331Z,85.50
2022-08-29T00:52:14.165Z,98.43
2022-08-29T00:52:50.093Z,87.05
2022-08-29T00:53:29.467Z,90.22
2022-08-29T00:54:04.654Z,93.35
2022-08-29T00:54:40.308Z,92.65
2022-08-29T00:55:17.268Z,89.07
2022-08-29T00:55:52.597Z,91.57
2022-08-29T00:56:27.832Z,88.10
2022-08-29T00:57:02.988Z,83.10
2022-08-29T00:57:37.045Z,86.75
2022-08-29T00:58:14.472Z,87.85
2022-08-29T00:58:55.374Z,84.07
2022-08-29T00:59:32.745Z,81.68
2022-08-29T01:00:08.855Z,89.88
2022-08-29T01:00:43.513Z,84.68
2022-08-29T01:01:17.537Z,90.65
2022-08-29T01:01:52.472Z,83.50
2022-08-29T01:02:27.134Z,86.38
2022-08-29T01:03:01.728Z,88.22
2022-08-29T01:03:36.750Z,93.93
2022-08-29T01:04:24.260Z,86.57
2022-08-29T01:05:00.339Z,85.75
2022-08-29T01:05:38.105Z,83.22
2022-08-29T01:06:14.192Z,90.15
2022-08-29T01:06:48.457Z,84.78
2022-08-29T01:07:22.117Z,89.10
2022-08-29T01:07:56.203Z,90.30
2022-08-29T01:08:30.918Z,80.28
2022-08-29T01:09:04.746Z,82.43
2022-08-29T01:09:41.371Z,80.05
2022-08-29T01:10:31.532Z,88.25
2022-08-29T01:11:23.416Z,82.05
2022-08-29T01:12:16.106Z,83.70
2022-08-29T01:12:50.251Z,94.25
2022-08-29T01:13:26.329Z,93.18
2022-08-29T01:14:03.511Z,76.55
2022-08-29T01:14:38.800Z,84.35
2022-08-29T01:15:13.793Z,82.70
2022-08-29T01:15:48.523Z,91.72
2022-08-29T01:16:23.453Z,81.70
2022-08-29T01:17:00.110Z,90.00
2022-08-29T01:17:35.772Z,86.05
2022-08-29T01:18:11.984Z,89.40
2022-08-29T01:18:48.139Z,95.47
2022-08-29T01:19:40.855Z,91.50
2022-08-29T01:20:21.553Z,85.38
2022-08-29T01:21:04.621Z,87.32
2022-08-29T01:21:41.796Z,85.35
2022-08-29T01:22:21.892Z,91.18
2022-08-29T01:23:02.800Z,104.63
2022-08-29T01:23:43.220Z,89.05
2022-08-29T01:24:27.093Z,88.18
2022-08-29T01:25:02.906Z,83.97
2022-08-29T01:25:39.577Z,87.53
2022-08-29T01:26:14.708Z,82.10
2022-08-29T01:26:49.536Z,83.57
2022-08-29T01:27:25.170Z,83.72
2022-08-29T01:28:02.677Z,94.07
2022-08-29T01:28:39.483Z,105.18
2022-08-29T01:29:13.148Z,86.65
2022-08-29T01:29:47.931Z,97.97
2022-08-29T01:30:23.087Z,86.78
2022-08-29T01:31:00.398Z,95.55
2022-08-29T01:31:56.400Z,86.35
2022-08-29T01:32:31.703Z,86.18
2022-08-29T01:33:07.598Z,90.25
2022-08-29T01:33:45.956Z,83.55
2022-08-29T01:34:20.950Z,84.60
2022-08-29T01:34:55.971Z,86.90
2022-08-29T01:35:29.281Z,89.90
2022-08-29T01:36:04.012Z,88.35
2022-08-29T01:36:42.054Z,97.18
2022-08-29T01:37:17.616Z,87.22
2022-08-29T01:37:52.483Z,95.28
2022-08-29T01:38:27.873Z,84.80
2022-08-29T01:39:02.963Z,85.28
2022-08-29T01:39:39.688Z,94.28
2022-08-29T01:40:16.788Z,95.10
2022-08-29T01:40:56.907Z,87.20
2022-08-29T01:41:33.606Z,86.15
2022-08-29T01:42:11.510Z,85.20
2022-08-29T01:42:47.539Z,89.32
2022-08-29T01:43:22.900Z,87.70
2022-08-29T01:43:58.043Z,85.18
2022-08-29T01:44:32.238Z,86.40
2022-08-29T01:45:09.745Z,84.88
2022-08-29T01:45:45.749Z,89.75
2022-08-29T01:46:20.677Z,83.22
2022-08-29T01:47:00.264Z,85.10
2022-08-29T01:47:36.895Z,84.18
2022-08-29T01:48:11.086Z,81.88
2022-08-29T01:48:46.570Z,88.07
2022-08-29T01:49:20.720Z,87.95
2022-08-29T01:49:56.028Z,78.18
2022-08-29T01:50:31.351Z,89.22
2022-08-29T01:51:05.263Z,86.10
2022-08-29T01:51:39.442Z,86.47
2022-08-29T01:52:14.423Z,87.75
2022-08-29T01:52:48.722Z,89.15
2022-08-29T01:53:23.021Z,81.20
2022-08-29T01:53:57.731Z,95.50
2022-08-29T01:54:32.367Z,80.60
2022-08-29T01:55:09.198Z,104.13
2022-08-29T01:55:43.555Z,89.28
2022-08-29T01:56:18.863Z,89.50
2022-08-29T01:56:53.885Z,86.03
2022-08-29T01:57:28.329Z,81.03
2022-08-29T01:58:02.052Z,90.82
2022-08-29T01:58:35.715Z,83.15
2022-08-29T01:59:11.727Z,83.97
2022-08-29T01:59:48.016Z,90.15
2022-08-29T02:00:22.638Z,91.93
2022-08-29T02:00:56.472Z,88.70
2022-08-29T02:01:32.724Z,91.75
2022-08-29T02:02:08.680Z,87.45
2022-08-29T02:02:43.953Z,105.55
2022-08-29T02:03:19.182Z,94.25
2022-08-29T02:03:54.056Z,95.75
2022-08-29T02:04:27.614Z,88.20
2022-08-29T02:05:02.712Z,90.32
2022-08-29T02:05:37.501Z,98.13
2022-08-29T02:06:10.931Z,89.93
2022-08-29T02:06:46.797Z,94.47
2022-08-29T02:07:25.123Z,94.28
2022-08-29T02:08:00.723Z,91.63
2022-08-29T02:08:35.277Z,88.28
2022-08-29T02:09:11.217Z,97.43
2022-08-29T02:09:47.479Z,91.05
2022-08-29T02:10:22.968Z,85.85
2022-08-29T02:11:01.208Z,95.28
2022-08-29T02:11:37.662Z,95.78
2022-08-29T02:12:11.436Z,86.60
2022-08-29T02:12:46.125Z,87.85
2022-08-29T02:13:20.860Z,96.82
2022-08-29T02:13:55.831Z,93.97
2022-08-29T02:14:30.727Z,88.07
2022-08-29T02:15:07.580Z,90.38
2022-08-29T02:15:41.994Z,92.57
2022-08-29T02:16:16.621Z,94.60
2022-08-29T02:16:52.409Z,86.15
2022-08-29T02:17:26.289Z,93.00
2022-08-29T02:18:01.051Z,92.32
2022-08-29T02:18:35.302Z,98.63
2022-08-29T02:19:09.203Z,92.38
2022-08-29T02:19:45.150Z,82.40
2022-08-29T02:20:21.168Z,92.65
2022-08-29T02:20:54.858Z,92.53
2022-08-29T02:21:30.049Z,97.70
2022-08-29T02:22:05.039Z,84.82
2022-08-29T02:22:39.099Z,86.90
2022-08-29T02:23:29.761Z,88.78
2022-08-29T02:24:23.911Z,86.13
2022-08-29T02:24:59.762Z,88.07
2022-08-29T02:25:47.693Z,94.78
2022-08-29T02:26:22.412Z,95.00
2022-08-29T02:26:58.009Z,91.75
2022-08-29T02:27:33.298Z,109.82
2022-08-29T02:28:07.652Z,94.40
2022-08-29T02:28:42.320Z,98.32
2022-08-29T02:29:17.719Z,95.65
2022-08-29T02:29:51.650Z,88.45
2022-08-29T02:30:27.072Z,89.68
2022-08-29T02:31:01.633Z,91.45
2022-08-29T02:31:37.292Z,87.72
2022-08-29T02:32:13.469Z,95.65
2022-08-29T02:32:47.816Z,88.60
2022-08-29T02:33:21.966Z,101.55
2022-08-29T02:33:57.852Z,84.07
2022-08-29T02:34:34.120Z,88.45
2022-08-29T02:35:10.669Z,77.65
2022-08-29T02:35:47.725Z,79.72
2022-08-29T02:36:22.906Z,75.93
2022-08-29T02:37:00.745Z,71.47
2022-08-29T02:37:35.069Z,71.57
2022-08-29T02:38:09.013Z,67.90
2022-08-29T02:38:44.203Z,73.53
2022-08-29T02:39:18.469Z,68.82
2022-08-29T02:39:54.668Z,68.53
2022-08-29T02:40:31.690Z,73.35
2022-08-29T02:41:12.386Z,59.25
2022-08-29T02:41:48.399Z,72.53
2022-08-29T02:42:23.187Z,64.82
2022-08-29T02:42:58.457Z,67.80
2022-08-29T02:43:32.652Z,59.45
2022-08-29T02:44:11.219Z,60.60
2022-08-29T02:44:44.555Z,66.13
2022-08-29T02:45:19.055Z,59.50
2022-08-29T02:45:53.332Z,59.55
2022-08-29T02:46:28.046Z,67.70
2022-08-29T02:47:04.791Z,147.77
2022-08-29T02:47:40.101Z,72.63
2022-08-29T02:48:14.789Z,67.38
2022-08-29T02:49:00.779Z,66.15
2022-08-29T02:49:35.447Z,62.05
2022-08-29T02:50:10.856Z,54.60
2022-08-29T02:50:47.676Z,59.42
2022-08-29T02:51:22.715Z,50.80
2022-08-29T02:51:58.806Z,58.38
2022-08-29T02:52:36.697Z,67.47
2022-08-29T02:53:12.632Z,58.75
2022-08-29T02:53:46.029Z,58.40
2022-08-29T02:54:21.487Z,53.05
2022-08-29T02:54:57.245Z,94.10
2022-08-29T02:55:31.401Z,64.93
2022-08-29T02:56:08.689Z,71.97
2022-08-29T02:56:49.453Z,55.30
2022-08-29T02:57:22.995Z,55.00
2022-08-29T02:58:00.227Z,53.45
2022-08-29T02:58:35.242Z,52.22
2022-08-29T02:59:08.655Z,54.10
2022-08-29T02:59:44.876Z,50.70
2022-08-29T03:00:21.617Z,50.80
2022-08-29T03:00:55.889Z,52.15
2022-08-29T03:01:31.576Z,58.72
2022-08-29T03:02:06.331Z,58.72
2022-08-29T03:02:39.442Z,53.15
2022-08-29T03:03:14.457Z,52.13
2022-08-29T03:03:48.740Z,52.35
2022-08-29T03:04:22.635Z,49.58
2022-08-29T03:05:00.899Z,47.33
2022-08-29T03:05:35.749Z,47.08
2022-08-29T03:06:13.136Z,57.13
2022-08-29T03:06:47.900Z,52.00
2022-08-29T03:07:23.411Z,55.17
2022-08-29T03:07:58.459Z,48.33
2022-08-29T03:08:32.741Z,44.65
2022-08-29T03:09:07.802Z,47.00
2022-08-29T03:09:42.866Z,46.47
2022-08-29T03:10:16.627Z,40.33
2022-08-29T03:10:50.803Z,46.47
2022-08-29T03:11:29.416Z,49.60
2022-08-29T03:12:03.854Z,46.72
2022-08-29T03:12:38.171Z,41.67
2022-08-29T03:13:12.559Z,47.45
2022-08-29T03:13:46.111Z,44.42
2022-08-29T03:14:19.772Z,44.00
2022-08-29T03:14:55.675Z,51.60
2022-08-29T03:15:29.634Z,58.85
2022-08-29T03:16:03.217Z,40.08
2022-08-29T03:16:38.276Z,44.33
2022-08-29T03:17:14.355Z,43.97
2022-08-29T03:17:48.155Z,40.20
2022-08-29T03:18:22.135Z,38.38
2022-08-29T03:18:58.052Z,38.95
2022-08-29T03:19:31.439Z,46.28
2022-08-29T03:20:13.712Z,40.55
2022-08-29T03:20:48.254Z,39.08
2022-08-29T03:21:24.725Z,43.88
2022-08-29T03:21:58.919Z,40.45
2022-08-29T03:22:35.317Z,42.30
2022-08-29T03:23:10.270Z,40.00
2022-08-29T03:23:46.229Z,39.53
2022-08-29T03:24:26.549Z,36.92
2022-08-29T03:25:02.227Z,41.13
2022-08-29T03:25:36.769Z,38.45
2022-08-29T03:26:10.936Z,44.67
2022-08-29T03:26:46.076Z,41.83
2022-08-29T03:27:30.663Z,37.50
2022-08-29T03:28:07.218Z,37.17
2022-08-29T03:28:41.338Z,36.85
2022-08-29T03:29:15.724Z,40.30
2022-08-29T03:29:51.406Z,37.53
2022-08-29T03:30:24.654Z,37.63
2022-08-29T03:30:58.761Z,38.00
2022-08-29T03:31:34.796Z,110.30
2022-08-29T03:32:08.436Z,48.45
2022-08-29T03:32:42.043Z,56.30
2022-08-29T03:33:17.340Z,163.15
2022-08-29T03:33:50.217Z,47.42
2022-08-29T03:34:25.375Z,41.65
2022-08-29T03:35:01.626Z,36.40
2022-08-29T03:35:35.256Z,38.78
2022-08-29T03:36:14.731Z,39.45
2022-08-29T03:36:48.829Z,39.25
2022-08-29T03:37:22.829Z,42.35
2022-08-29T03:37:59.020Z,42.30
2022-08-29T03:38:33.360Z,41.70
2022-08-29T03:39:08.498Z,51.78
2022-08-29T03:39:43.265Z,45.08
2022-08-29T03:40:17.319Z,48.22
2022-08-29T03:40:52.107Z,130.80
2022-08-29T03:41:31.579Z,51.92
2022-08-29T03:42:07.932Z,50.38
2022-08-29T03:42:43.547Z,44.00
2022-08-29T03:43:20.069Z,37.15
2022-08-29T03:43:55.924Z,37.15
2022-08-29T03:44:31.257Z,45.78
2022-08-29T03:45:05.655Z,37.35
2022-08-29T03:45:39.709Z,38.50
2022-08-29T03:46:15.213Z,38.17
2022-08-29T03:46:49.594Z,40.65
2022-08-29T03:47:23.716Z,39.75
2022-08-29T03:48:00.116Z,39.30
2022-08-29T03:48:35.620Z,44.95
2022-08-29T03:49:10.487Z,53.75
2022-08-29T03:49:46.207Z,43.88
2022-08-29T03:50:20.966Z,54.25
2022-08-29T03:50:56.574Z,42.63
2022-08-29T03:51:32.969Z,40.28
2022-08-29T03:52:10.425Z,39.58
2022-08-29T03:52:44.603Z,39.22
2022-08-29T03:53:19.301Z,39.60
2022-08-29T03:53:54.675Z,34.15
2022-08-29T03:54:29.941Z,37.05
2022-08-29T03:55:08.321Z,37.75
2022-08-29T03:55:43.033Z,44.13
2022-08-29T03:56:20.067Z,39.30
2022-08-29T03:56:56.291Z,38.60
2022-08-29T03:57:35.612Z,41.05
2022-08-29T03:58:09.979Z,41.92
2022-08-29T03:58:50.410Z,37.35
2022-08-29T03:59:27.989Z,36.78
2022-08-29T04:00:03.167Z,55.55
2022-08-29T04:00:47.642Z,49.47
2022-08-29T04:01:22.965Z,38.90
2022-08-29T04:01:58.803Z,45.72
2022-08-29T04:02:35.199Z,42.30
2022-08-29T04:03:10.559Z,45.58
2022-08-29T04:03:45.332Z,36.83
2022-08-29T04:04:34.509Z,40.03
2022-08-29T04:05:08.910Z,46.85
2022-08-29T04:05:43.934Z,44.55
2022-08-29T04:06:17.525Z,40.22
2022-08-29T04:06:51.853Z,47.90
2022-08-29T04:07:25.356Z,44.30
2022-08-29T04:08:01.431Z,52.22
2022-08-29T04:08:35.713Z,35.95
2022-08-29T04:09:09.971Z,41.05
2022-08-29T04:09:44.488Z,41.85
2022-08-29T04:10:19.602Z,40.50
2022-08-29T04:10:53.889Z,47.80
2022-08-29T04:11:29.614Z,57.67
2022-08-29T04:12:05.050Z,76.57
2022-08-29T04:12:41.065Z,83.65
2022-08-29T04:13:15.438Z,50.33
2022-08-29T04:13:49.364Z,48.80
2022-08-29T04:14:24.794Z,38.03
2022-08-29T04:14:58.891Z,39.03
2022-08-29T04:15:34.421Z,44.20
2022-08-29T04:16:10.959Z,37.55
2022-08-29T04:16:48.889Z,37.10
2022-08-29T04:17:23.633Z,46.90
2022-08-29T04:17:58.729Z,42.88
2022-08-29T04:18:33.581Z,39.25
2022-08-29T04:19:07.217Z,44.13
2022-08-29T04:19:43.437Z,38.80
2022-08-29T04:20:20.599Z,40.05
2022-08-29T04:21:32.565Z,46.30
2022-08-29T04:22:06.801Z,45.80
2022-08-29T04:22:43.188Z,41.72
2022-08-29T04:23:18.000Z,51.47
2022-08-29T04:23:53.256Z,43.00
2022-08-29T04:24:27.748Z,49.55
2022-08-29T04:25:02.300Z,40.30
2022-08-29T04:25:38.187Z,46.70
2022-08-29T04:26:35.389Z,38.92
2022-08-29T04:27:10.444Z,40.35
2022-08-29T04:27:46.322Z,49.72
2022-08-29T04:28:20.713Z,39.40
2022-08-29T04:28:55.486Z,42.88
2022-08-29T04:29:30.025Z,39.33
2022-08-29T04:30:07.999Z,51.28
2022-08-29T04:30:41.877Z,46.67
2022-08-29T04:31:20.418Z,40.03
2022-08-29T04:31:55.416Z,35.88
2022-08-29T04:32:29.971Z,40.22
2022-08-29T04:33:04.762Z,47.63
2022-08-29T04:33:39.219Z,44.33
2022-08-29T04:34:14.580Z,43.85
2022-08-29T04:34:48.965Z,43.30
2022-08-29T04:35:24.254Z,41.17
2022-08-29T04:35:59.482Z,46.83
2022-08-29T04:36:33.938Z,45.28
2022-08-29T04:37:07.962Z,42.33
2022-08-29T04:37:41.789Z,49.22
2022-08-29T04:38:17.619Z,47.38
2022-08-29T04:38:52.220Z,44.78
2022-08-29T04:39:26.211Z,53.38
2022-08-29T04:40:02.266Z,37.30
2022-08-29T04:40:39.037Z,49.42
2022-08-29T04:41:15.486Z,48.47
2022-08-29T04:41:50.521Z,42.60
2022-08-29T04:42:23.533Z,39.42
2022-08-29T04:43:00.199Z,45.95
2022-08-29T04:43:34.696Z,49.72
2022-08-29T04:44:10.168Z,45.25
2022-08-29T04:44:44.701Z,42.60
2022-08-29T04:45:21.113Z,43.83
2022-08-29T04:45:55.991Z,43.28
2022-08-29T04:46:29.779Z,43.00
2022-08-29T04:47:05.566Z,47.53
2022-08-29T04:47:39.177Z,47.75
2022-08-29T04:48:12.597Z,50.55
2022-08-29T04:48:48.623Z,41.38
2022-08-29T04:49:23.175Z,42.28
2022-08-29T04:49:57.617Z,42.75
2022-08-29T04:50:31.831Z,54.28
2022-08-29T04:51:06.757Z,56.90
2022-08-29T04:51:42.291Z,43.25
2022-08-29T04:52:15.667Z,42.03
2022-08-29T04:52:49.714Z,42.33
2022-08-29T04:53:25.232Z,49.00
2022-08-29T04:54:00.437Z,53.55
2022-08-29T04:54:33.841Z,40.58
2022-08-29T04:55:08.323Z,46.20
2022-08-29T04:55:42.293Z,43.50
2022-08-29T04:56:17.855Z,46.95
2022-08-29T04:56:53.294Z,45.88
2022-08-29T04:57:31.083Z,65.00
2022-08-29T04:58:07.059Z,156.13
2022-08-29T04:58:46.163Z,77.35
2022-08-29T04:59:20.443Z,47.17
2022-08-29T04:59:55.199Z,46.10
2022-08-29T05:00:31.275Z,46.85
2022-08-29T05:01:05.645Z,49.88
2022-08-29T05:01:39.391Z,46.58
2022-08-29T05:02:18.348Z,44.33
2022-08-29T05:02:52.654Z,44.15
2022-08-29T05:03:28.223Z,45.22
2022-08-29T05:04:02.678Z,48.20
2022-08-29T05:04:37.156Z,47.67
2022-08-29T05:05:11.485Z,53.60
2022-08-29T05:05:46.218Z,49.17
2022-08-29T05:06:22.486Z,51.80
2022-08-29T05:06:57.074Z,56.67
2022-08-29T05:07:33.522Z,57.25
2022-08-29T05:08:12.681Z,55.38
2022-08-29T05:08:46.240Z,54.50
2022-08-29T05:09:23.177Z,51.63
2022-08-29T05:09:59.413Z,46.70
2022-08-29T05:10:33.518Z,58.67
2022-08-29T05:11:08.947Z,56.92
2022-08-29T05:11:43.728Z,54.80
2022-08-29T05:12:21.683Z,49.05
2022-08-29T05:12:55.936Z,54.10
2022-08-29T05:13:32.212Z,54.95
2022-08-29T05:14:07.329Z,51.25
2022-08-29T05:14:41.540Z,53.55
2022-08-29T05:15:17.053Z,52.10
2022-08-29T05:15:52.340Z,47.10
2022-08-29T05:16:26.409Z,52.05
2022-08-29T05:17:02.440Z,57.05
2022-08-29T05:17:37.164Z,51.33
2022-08-29T05:18:11.119Z,54.85
2022-08-29T05:18:47.445Z,56.78
2022-08-29T05:19:21.101Z,59.00
2022-08-29T05:19:54.804Z,55.35
2022-08-29T05:20:30.372Z,53.88
2022-08-29T05:21:05.633Z,53.70
2022-08-29T05:21:40.658Z,57.13
2022-08-29T05:22:15.421Z,60.60
2022-08-29T05:22:49.625Z,59.03
2022-08-29T05:23:22.975Z,57.83
2022-08-29T05:23:59.036Z,61.80
2022-08-29T05:24:37.870Z,54.05
2022-08-29T05:25:17.354Z,55.40
2022-08-29T05:25:58.447Z,65.30
2022-08-29T05:26:32.353Z,58.65
2022-08-29T05:27:10.384Z,59.15
2022-08-29T05:27:45.072Z,62.10
2022-08-29T05:28:19.959Z,62.30
2022-08-29T05:28:56.586Z,56.15
2022-08-29T05:29:31.810Z,58.65
2022-08-29T05:30:07.607Z,57.03
2022-08-29T05:30:42.190Z,54.03
2022-08-29T05:31:16.862Z,56.88
2022-08-29T05:31:53.814Z,60.58
2022-08-29T05:32:27.795Z,56.83
2022-08-29T05:33:03.885Z,62.00
2022-08-29T05:33:38.455Z,52.95
2022-08-29T05:34:32.032Z,63.08
2022-08-29T05:35:08.475Z,52.15
2022-08-29T05:35:42.371Z,57.63
2022-08-29T05:36:16.538Z,60.65
2022-08-29T05:36:52.159Z,57.28
2022-08-29T05:37:25.800Z,51.03
2022-08-29T05:38:03.749Z,57.70
2022-08-29T05:38:41.255Z,51.42
2022-08-29T05:39:15.118Z,55.80
2022-08-29T05:39:50.619Z,57.97
2022-08-29T05:40:25.465Z,53.95
2022-08-29T05:41:01.195Z,70.65
2022-08-29T05:41:36.466Z,59.90
2022-08-29T05:42:14.064Z,53.65
2022-08-29T05:42:47.715Z,54.80
2022-08-29T05:43:25.811Z,58.35
2022-08-29T05:44:01.206Z,55.60
2022-08-29T05:44:36.919Z,60.90
2022-08-29T05:45:14.046Z,54.28
2022-08-29T05:45:47.293Z,64.18
2022-08-29T05:46:22.066Z,56.13
2022-08-29T05:46:57.845Z,50.63
2022-08-29T05:47:33.305Z,62.28
2022-08-29T05:48:08.477Z,53.10
2022-08-29T05:48:44.171Z,54.28
2022-08-29T05:49:18.907Z,52.55
2022-08-29T05:49:53.792Z,57.40
2022-08-29T05:50:26.797Z,56.33
2022-08-29T05:51:00.969Z,62.20
2022-08-29T05:51:39.657Z,58.75
2022-08-29T05:52:16.697Z,56.80
2022-08-29T05:52:51.539Z,56.40
2022-08-29T05:53:26.150Z,48.60
2022-08-29T05:54:01.455Z,56.67
2022-08-29T05:54:36.535Z,53.78
2022-08-29T05:55:11.703Z,51.83
2022-08-29T05:55:46.481Z,56.25
2022-08-29T05:56:25.625Z,57.03
2022-08-29T05:56:58.687Z,56.05
2022-08-29T05:57:35.060Z,60.20
2022-08-29T05:58:08.683Z,61.85
2022-08-29T05:58:44.588Z,56.80
2022-08-29T05:59:21.444Z,60.78
2022-08-29T05:59:55.741Z,55.42
2022-08-29T06:00:30.221Z,55.45
2022-08-29T06:01:05.920Z,53.88
2022-08-29T06:01:38.921Z,56.97
2022-08-29T06:02:14.753Z,54.85
2022-08-29T06:02:51.114Z,54.55
2022-08-29T06:03:25.996Z,60.80
2022-08-29T06:04:01.278Z,52.78
2022-08-29T06:04:35.027Z,58.60
2022-08-29T06:05:12.135Z,51.92
2022-08-29T06:05:52.633Z,54.67
2022-08-29T06:06:27.307Z,49.70
2022-08-29T06:07:01.244Z,57.50
2022-08-29T06:07:36.846Z,55.47
2022-08-29T06:08:11.760Z,58.13
2022-08-29T06:08:46.331Z,57.58
2022-08-29T06:09:21.417Z,59.25
2022-08-29T06:10:03.280Z,60.65
2022-08-29T06:10:41.762Z,61.40
2022-08-29T06:11:16.020Z,51.72
2022-08-29T06:11:51.057Z,59.58
2022-08-29T06:12:26.323Z,56.08
2022-08-29T06:13:01.109Z,52.80
2022-08-29T06:13:36.489Z,60.70
2022-08-29T06:14:10.638Z,52.83
2022-08-29T06:14:50.140Z,62.20
2022-08-29T06:15:26.658Z,62.50
2022-08-29T06:16:02.688Z,64.35
2022-08-29T06:16:36.609Z,63.20
2022-08-29T06:17:11.343Z,61.03
2022-08-29T06:17:45.938Z,61.33
2022-08-29T06:18:18.816Z,58.83
2022-08-29T06:19:01.972Z,60.42
2022-08-29T06:19:37.753Z,63.88
2022-08-29T06:20:13.512Z,55.20
2022-08-29T06:20:47.959Z,66.97
2022-08-29T06:21:24.139Z,74.45
2022-08-29T06:21:57.960Z,61.20
2022-08-29T06:22:36.042Z,77.18
2022-08-29T06:23:15.494Z,62.75
2022-08-29T06:23:49.189Z,58.13
2022-08-29T06:24:24.651Z,70.00
2022-08-29T06:25:00.497Z,65.60
2022-08-29T06:25:40.079Z,65.65
2022-08-29T06:26:15.291Z,76.90
2022-08-29T06:26:49.837Z,61.22
2022-08-29T06:27:23.502Z,63.30
2022-08-29T06:27:58.622Z,59.15
2022-08-29T06:28:34.494Z,64.60
2022-08-29T06:29:10.042Z,65.85
2022-08-29T06:29:43.997Z,58.25
2022-08-29T06:30:21.861Z,63.65
2022-08-29T06:30:56.704Z,66.15
2022-08-29T06:31:31.452Z,62.95
2022-08-29T06:32:06.844Z,61.03
2022-08-29T06:32:41.989Z,68.60
2022-08-29T06:33:17.534Z,68.75
2022-08-29T06:33:52.948Z,64.32
2022-08-29T06:34:26.547Z,66.50
2022-08-29T06:35:02.313Z,69.50
2022-08-29T06:35:37.784Z,67.53
2022-08-29T06:36:12.587Z,66.68
2022-08-29T06:36:48.498Z,69.55
2022-08-29T06:37:23.934Z,64.70
2022-08-29T06:37:58.622Z,69.97
2022-08-29T06:38:34.400Z,65.28
2022-08-29T06:39:09.733Z,65.10
2022-08-29T06:39:45.132Z,65.10
2022-08-29T06:40:20.590Z,66.32
2022-08-29T06:40:55.068Z,62.47
2022-08-29T06:41:30.568Z,66.07
2022-08-29T06:42:05.952Z,62.13
2022-08-29T06:42:40.123Z,64.82
2022-08-29T06:43:16.304Z,64.97
2022-08-29T06:43:50.301Z,66.90
2022-08-29T06:44:24.986Z,59.42
2022-08-29T06:45:00.430Z,64.15
2022-08-29T06:45:43.478Z,70.43
2022-08-29T06:46:22.420Z,72.10
2022-08-29T06:46:57.152Z,66.40
2022-08-29T06:47:32.185Z,65.03
2022-08-29T06:48:07.641Z,65.32
2022-08-29T06:48:42.770Z,67.00
2022-08-29T06:49:17.759Z,69.38
2022-08-29T06:49:50.578Z,61.35
2022-08-29T06:50:25.440Z,63.67
2022-08-29T06:51:02.236Z,59.67
2022-08-29T06:51:37.392Z,66.57
2022-08-29T06:52:11.902Z,57.65
2022-08-29T06:52:46.975Z,67.80
2022-08-29T06:53:31.681Z,66.22
2022-08-29T06:54:07.603Z,61.03
2022-08-29T06:54:43.266Z,56.90
2022-08-29T06:55:23.789Z,66.63
2022-08-29T06:55:59.543Z,63.20
2022-08-29T06:56:34.389Z,59.80
2022-08-29T06:57:13.440Z,66.03
2022-08-29T06:57:47.630Z,65.28
2022-08-29T06:58:20.820Z,62.97
2022-08-29T06:58:56.376Z,63.00
2022-08-29T06:59:30.577Z,61.28
2022-08-29T07:00:21.379Z,62.72
2022-08-29T07:00:58.868Z,57.00
2022-08-29T07:01:34.233Z,58.00
2022-08-29T07:02:09.963Z,58.83
2022-08-29T07:02:44.624Z,64.72
2022-08-29T07:03:28.464Z,74.07
2022-08-29T07:04:03.124Z,59.28
2022-08-29T07:04:37.109Z,65.53
2022-08-29T07:05:13.272Z,69.50
2022-08-29T07:05:52.725Z,61.42
2022-08-29T07:06:28.155Z,70.85
2022-08-29T07:07:02.485Z,61.40
2022-08-29T07:07:36.682Z,78.43
2022-08-29T07:08:10.380Z,69.22
2022-08-29T07:08:55.429Z,64.90
2022-08-29T07:09:32.118Z,60.97
2022-08-29T07:10:08.624Z,63.45
2022-08-29T07:10:45.977Z,68.50
2022-08-29T07:11:19.905Z,67.45
2022-08-29T07:11:55.134Z,62.00
2022-08-29T07:12:29.773Z,66.93
2022-08-29T07:13:05.140Z,61.15
2022-08-29T07:13:40.851Z,72.50
2022-08-29T07:14:14.158Z,67.82
2022-08-29T07:14:48.572Z,65.63
2022-08-29T07:15:27.438Z,72.40
2022-08-29T07:16:04.390Z,74.32
2022-08-29T07:16:39.835Z,78.43
2022-08-29T07:17:19.042Z,65.07
2022-08-29T07:18:03.092Z,62.72
2022-08-29T07:18:37.589Z,66.18
2022-08-29T07:19:12.475Z,66.80
2022-08-29T07:19:47.892Z,61.45
2022-08-29T07:20:21.814Z,61.92
2022-08-29T07:20:56.431Z,64.63
2022-08-29T07:21:29.812Z,70.68
2022-08-29T07:22:04.366Z,64.13
2022-08-29T07:22:38.132Z,57.92
2022-08-29T07:23:13.234Z,62.53
2022-08-29T07:23:49.081Z,67.13
2022-08-29T07:24:24.964Z,62.80
2022-08-29T07:25:00.234Z,63.95
2022-08-29T07:25:35.139Z,66.03
2022-08-29T07:26:09.467Z,64.28
2022-08-29T07:26:45.759Z,63.42
2022-08-29T07:27:21.068Z,64.93
2022-08-29T07:27:56.251Z,63.08
2022-08-29T07:28:33.923Z,58.40
2022-08-29T07:29:11.469Z,67.35
2022-08-29T07:29:50.531Z,59.92
2022-08-29T07:30:25.192Z,52.25
2022-08-29T07:30:59.537Z,62.72
2022-08-29T07:31:35.785Z,54.47
2022-08-29T07:32:10.029Z,57.08
2022-08-29T07:32:46.723Z,56.78
2022-08-29T07:33:21.694Z,53.13
2022-08-29T07:34:02.196Z,60.13
2022-08-29T07:34:37.370Z,56.75
2022-08-29T07:35:13.658Z,53.65
2022-08-29T07:35:48.408Z,57.42
2022-08-29T07:36:22.451Z,55.90
2022-08-29T07:36:58.022Z,58.03
2022-08-29T07:37:33.621Z,65.72
2022-08-29T07:38:09.606Z,53.53
2022-08-29T07:38:43.310Z,60.78
2022-08-29T07:39:18.403Z,50.60
2022-08-29T07:39:52.879Z,48.50
2022-08-29T07:40:27.649Z,52.22
2022-08-29T07:41:02.680Z,56.60
2022-08-29T07:41:38.088Z,48.92
2022-08-29T07:42:11.726Z,43.38